Time;durP1;ratioP1;P1;durP2;ratioP2;P2;SDS_P1;SDS_P2;PMS_P1;PMS_P2;Temp;Humidity;BMP_temperature;BMP_pressure;BME280_temperature;BME280_humidity;BME280_pressure;Samples;Min_cycle;Max_cycle;Signal;HPM_P1;HPM_P2
2022/12/03 00:01:14;;;;;;;13.65;8.25;;;3.80;99.90;;;;;;5072767;28;20408;-63
2022/12/03 00:03:42;;;;;;;16.05;9.18;;;3.90;99.90;;;;;;5073421;28;20063;-63
2022/12/03 00:06:09;;;;;;;15.63;9.30;;;3.90;99.90;;;;;;5072647;28;20131;-63
2022/12/03 00:08:36;;;;;;;15.27;8.35;;;3.90;99.90;;;;;;5070269;28;20052;-63
2022/12/03 00:11:03;;;;;;;12.88;7.80;;;3.90;99.90;;;;;;5071523;28;20063;-63
2022/12/03 00:13:30;;;;;;;16.08;8.80;;;4.00;99.90;;;;;;5072492;28;20048;-63
2022/12/03 00:15:57;;;;;;;17.25;9.00;;;4.00;99.90;;;;;;5072645;28;20484;-63
2022/12/03 00:18:24;;;;;;;14.60;8.80;;;4.00;99.90;;;;;;5073142;28;20053;-62
2022/12/03 00:20:52;;;;;;;13.10;8.13;;;4.10;99.90;;;;;;5072291;28;20416;-62
2022/12/03 00:23:19;;;;;;;12.63;7.18;;;4.10;99.90;;;;;;5073709;28;20115;-63
2022/12/03 00:25:45;;;;;;;14.93;8.23;;;4.10;99.90;;;;;;5069806;28;20117;-61
2022/12/03 00:28:12;;;;;;;13.00;8.27;;;4.10;99.90;;;;;;5073257;28;20428;-62
2022/12/03 00:30:39;;;;;;;12.35;7.80;;;4.10;99.90;;;;;;5073525;28;20044;-62
2022/12/03 00:33:06;;;;;;;13.65;7.95;;;4.10;99.90;;;;;;5071774;28;20404;-62
2022/12/03 00:35:33;;;;;;;14.45;7.78;;;4.30;99.90;;;;;;5073095;28;20144;-63
2022/12/03 00:38:01;;;;;;;16.00;8.75;;;4.10;99.90;;;;;;5072083;28;20054;-62
2022/12/03 00:40:28;;;;;;;13.40;7.82;;;4.20;99.90;;;;;;5072411;28;20484;-62
2022/12/03 00:42:55;;;;;;;13.18;7.75;;;4.20;99.90;;;;;;5073222;28;20056;-62
2022/12/03 00:45:22;;;;;;;12.98;8.32;;;4.10;99.90;;;;;;5072871;28;20048;-62
2022/12/03 00:47:49;;;;;;;12.63;7.22;;;4.20;99.90;;;;;;5072497;28;20052;-63
2022/12/03 00:50:16;;;;;;;14.05;8.00;;;4.20;99.90;;;;;;5069897;28;20515;-63
2022/12/03 00:52:43;;;;;;;15.02;7.95;;;4.20;99.90;;;;;;5071903;28;20052;-63
2022/12/03 00:55:11;;;;;;;15.95;8.60;;;4.20;99.90;;;;;;5072376;28;20049;-63
2022/12/03 00:57:38;;;;;;;12.55;7.97;;;4.20;99.90;;;;;;5072268;28;20052;-62
2022/12/03 01:00:07;;;;;;;12.88;8.65;;;4.20;99.90;;;;;;5071194;28;20487;-62
2022/12/03 01:02:33;;;;;;;15.43;9.10;;;4.20;99.90;;;;;;5069254;28;20469;-63
2022/12/03 01:05:00;;;;;;;12.20;8.05;;;4.20;99.90;;;;;;5071239;28;20052;-63
2022/12/03 01:07:27;;;;;;;14.70;8.10;;;4.20;99.90;;;;;;5071943;28;20048;-63
2022/12/03 01:09:54;;;;;;;13.18;8.27;;;4.20;99.90;;;;;;5071306;28;20052;-62
2022/12/03 01:12:22;;;;;;;13.32;8.50;;;4.20;99.90;;;;;;5071197;28;20064;-62
2022/12/03 01:14:49;;;;;;;14.88;8.02;;;4.20;99.90;;;;;;5071922;28;20047;-63
2022/12/03 01:17:16;;;;;;;13.18;8.05;;;4.20;99.90;;;;;;5072425;28;20059;-62
2022/12/03 01:19:43;;;;;;;13.23;8.13;;;4.30;99.90;;;;;;5072390;28;20052;-62
2022/12/03 01:22:10;;;;;;;15.65;8.57;;;4.30;99.90;;;;;;5071204;28;20044;-62
2022/12/03 01:24:37;;;;;;;15.80;8.15;;;4.30;99.90;;;;;;5072454;28;20048;-62
2022/12/03 01:27:04;;;;;;;13.85;8.85;;;4.30;99.90;;;;;;5072232;28;20055;-63
2022/12/03 01:29:32;;;;;;;15.57;8.48;;;4.30;99.90;;;;;;5071545;28;20535;-63
2022/12/03 01:32:16;;;;;;;14.98;7.82;;;4.30;99.90;;;;;;5068709;28;20048;-62
2022/12/03 01:34:43;;;;;;;14.77;8.75;;;4.30;99.90;;;;;;5072450;28;20114;-63
2022/12/03 01:37:10;;;;;;;15.02;9.02;;;4.30;99.90;;;;;;5071595;28;20044;-63
2022/12/03 01:39:37;;;;;;;16.00;9.00;;;4.30;99.90;;;;;;5071858;28;20048;-62
2022/12/03 01:42:05;;;;;;;12.05;8.23;;;4.40;99.90;;;;;;5071781;28;20045;-62
2022/12/03 01:44:36;;;;;;;19.63;8.95;;;4.30;99.90;;;;;;5069488;28;20063;-62
2022/12/03 01:47:06;;;;;;;18.92;9.10;;;4.40;99.90;;;;;;5070821;28;20063;-63
2022/12/03 01:49:39;;;;;;;14.68;8.80;;;4.30;99.90;;;;;;5071167;28;20044;-63
2022/12/03 01:52:09;;;;;;;16.73;9.55;;;4.40;99.90;;;;;;5071999;28;20119;-63
2022/12/03 01:54:39;;;;;;;13.63;8.10;;;4.40;99.90;;;;;;5070987;28;20048;-62
2022/12/03 01:57:13;;;;;;;14.80;9.20;;;4.30;99.90;;;;;;5071723;28;20045;-63
2022/12/03 01:59:41;;;;;;;13.82;8.95;;;4.30;99.90;;;;;;5070666;28;20052;-62
2022/12/03 02:02:13;;;;;;;16.00;9.90;;;4.40;99.90;;;;;;5071806;28;20052;-63
2022/12/03 02:04:40;;;;;;;14.90;8.30;;;4.50;99.90;;;;;;5071345;28;20048;-62
2022/12/03 02:07:22;;;;;;;15.57;9.63;;;4.30;99.90;;;;;;5068438;28;20056;-63
2022/12/03 02:09:49;;;;;;;16.60;8.88;;;4.30;99.90;;;;;;5070683;28;20454;-63
2022/12/03 02:12:20;;;;;;;16.23;9.93;;;4.40;99.90;;;;;;5070094;28;20511;-63
2022/12/03 02:14:49;;;;;;;;;;;4.30;99.90;;;;;;5071193;28;20443;-63
2022/12/03 02:17:16;;;;;;;13.32;7.88;;;4.30;99.90;;;;;;5070546;28;19924;-63
2022/12/03 02:19:43;;;;;;;14.50;8.55;;;4.30;99.90;;;;;;5068411;28;20056;-63
2022/12/03 02:22:26;;;;;;;18.50;9.05;;;4.30;99.90;;;;;;5070155;28;20094;-62
2022/12/03 02:24:57;;;;;;;18.25;9.80;;;4.30;99.90;;;;;;5069929;28;20048;-61
2022/12/03 02:27:26;;;;;;;;;;;4.30;99.90;;;;;;5070786;28;20048;-63
2022/12/03 02:29:54;;;;;;;14.30;9.73;;;4.30;99.90;;;;;;5071531;28;19932;-63
2022/12/03 02:32:22;;;;;;;16.00;9.20;;;4.30;99.90;;;;;;5071055;28;20071;-64
2022/12/03 02:34:50;;;;;;;14.38;8.80;;;4.30;99.90;;;;;;5074269;28;20121;-62
2022/12/03 02:37:21;;;;;;;16.48;9.57;;;4.30;99.90;;;;;;5075565;28;20045;-62
2022/12/03 02:39:52;;;;;;;15.55;9.73;;;4.40;99.90;;;;;;5075096;28;20458;-63
2022/12/03 02:42:34;;;;;;;19.10;10.45;;;4.30;99.90;;;;;;5074178;28;20048;-63
2022/12/03 02:45:06;;;;;;;16.55;9.32;;;4.30;99.90;;;;;;5073291;28;20110;-62
2022/12/03 02:47:38;;;;;;;15.52;10.63;;;4.20;99.90;;;;;;5073048;28;20044;-62
2022/12/03 02:50:06;;;;;;;18.67;10.38;;;4.20;99.90;;;;;;5075399;28;20130;-62
2022/12/03 02:52:33;;;;;;;17.33;10.23;;;4.20;99.90;;;;;;5074497;28;20040;-63
2022/12/03 02:55:01;;;;;;;16.80;10.15;;;4.30;99.90;;;;;;5074237;28;20045;-63
2022/12/03 02:57:28;;;;;;;16.15;10.65;;;4.10;99.90;;;;;;5075337;28;20098;-62
2022/12/03 02:59:55;;;;;;;17.75;10.00;;;4.10;99.90;;;;;;5074731;28;20052;-63
2022/12/03 03:02:24;;;;;;;17.75;11.43;;;4.20;99.90;;;;;;5074904;28;20354;-62
2022/12/03 03:04:51;;;;;;;17.08;9.35;;;4.10;99.90;;;;;;5073921;28;20048;-62
2022/12/03 03:07:18;;;;;;;17.40;10.32;;;4.10;99.90;;;;;;5073255;28;20048;-63
2022/12/03 03:09:45;;;;;;;17.10;10.23;;;4.00;99.90;;;;;;5073625;28;20060;-62
2022/12/03 03:12:12;;;;;;;15.88;10.57;;;4.00;99.90;;;;;;5074635;28;20444;-62
2022/12/03 03:14:39;;;;;;;16.58;10.52;;;4.00;99.90;;;;;;5074187;28;20047;-62
2022/12/03 03:17:06;;;;;;;17.58;9.55;;;4.00;99.90;;;;;;5073512;28;20535;-62
2022/12/03 03:19:34;;;;;;;18.27;9.93;;;4.00;99.90;;;;;;5074458;28;20484;-63
2022/12/03 03:22:01;;;;;;;17.88;10.50;;;4.00;99.90;;;;;;5071725;28;20067;-63
2022/12/03 03:24:28;;;;;;;16.35;10.25;;;3.90;99.90;;;;;;5074629;28;20048;-63
2022/12/03 03:26:55;;;;;;;16.75;10.35;;;3.90;99.90;;;;;;5074493;28;20044;-63
2022/12/03 03:29:22;;;;;;;18.60;11.38;;;3.90;99.90;;;;;;5072423;28;20451;-63
2022/12/03 03:31:49;;;;;;;20.27;10.27;;;3.80;99.90;;;;;;5074366;28;20045;-63
2022/12/03 03:34:16;;;;;;;19.25;10.00;;;3.80;99.90;;;;;;5073263;28;20052;-63
2022/12/03 03:36:45;;;;;;;20.38;10.85;;;3.80;99.90;;;;;;5072470;28;20501;-63
2022/12/03 03:39:13;;;;;;;17.00;10.55;;;3.80;99.90;;;;;;5072997;28;20052;-63
2022/12/03 03:41:41;;;;;;;15.43;9.95;;;3.80;99.90;;;;;;5073744;28;20109;-63
2022/12/03 03:44:09;;;;;;;18.38;10.38;;;3.80;99.90;;;;;;5073019;28;20056;-63
2022/12/03 03:46:37;;;;;;;19.02;10.70;;;3.70;99.90;;;;;;5071107;28;20136;-63
2022/12/03 03:49:04;;;;;;;19.58;11.35;;;3.70;99.90;;;;;;5073058;28;20090;-63
2022/12/03 03:51:33;;;;;;;19.77;11.43;;;3.80;99.90;;;;;;5072966;28;20036;-63
2022/12/03 03:54:03;;;;;;;18.90;10.48;;;3.70;99.90;;;;;;5074227;28;20416;-63
2022/12/03 03:56:32;;;;;;;;;;;3.70;99.90;;;;;;5073949;28;20063;-63
2022/12/03 03:58:59;;;;;;;22.58;11.30;;;3.70;99.90;;;;;;5073628;28;20402;-63
2022/12/03 04:01:27;;;;;;;16.17;9.73;;;3.70;99.90;;;;;;5072680;28;20503;-63
2022/12/03 04:03:54;;;;;;;19.08;10.57;;;3.70;99.90;;;;;;5072033;28;20094;-63
2022/12/03 04:06:21;;;;;;;16.90;9.73;;;3.70;99.90;;;;;;5074107;28;20063;-63
2022/12/03 04:08:48;;;;;;;17.15;10.43;;;3.70;99.90;;;;;;5070505;28;20048;-63
2022/12/03 04:14:01;;;;;;;18.98;10.30;;;3.80;99.90;;;;;;5072628;28;20059;-63
2022/12/03 04:16:28;;;;;;;19.80;10.98;;;3.60;99.90;;;;;;5072253;28;20048;-62
2022/12/03 04:18:55;;;;;;;20.08;11.13;;;3.60;99.90;;;;;;5071601;28;20086;-63
2022/12/03 04:24:10;;;;;;;19.90;10.90;;;3.60;99.90;;;;;;5072950;28;20047;-63
2022/12/03 04:29:23;;;;;;;19.55;10.77;;;3.60;99.90;;;;;;5071846;28;20044;-62
2022/12/03 04:37:19;;;;;;;18.23;10.90;;;3.60;99.90;;;;;;5071754;28;20044;-62
2022/12/03 04:39:46;;;;;;;18.38;11.70;;;3.60;99.90;;;;;;5072431;28;20491;-63
2022/12/03 04:42:15;;;;;;;20.73;10.68;;;3.60;99.90;;;;;;5072993;28;20507;-62
2022/12/03 04:44:42;;;;;;;18.50;10.57;;;3.60;99.90;;;;;;5072775;28;20428;-62
2022/12/03 04:47:11;;;;;;;19.45;11.60;;;3.50;99.90;;;;;;5071006;28;20055;-62
2022/12/03 04:49:40;;;;;;;19.23;10.85;;;3.50;99.90;;;;;;5071699;28;20484;-62
2022/12/03 04:52:08;;;;;;;19.17;11.40;;;3.50;99.90;;;;;;5070235;28;20040;-62
2022/12/03 04:54:35;;;;;;;20.60;11.85;;;3.50;99.90;;;;;;5072685;28;20063;-62
2022/12/03 04:57:03;;;;;;;19.73;11.75;;;3.50;99.90;;;;;;5071443;28;20049;-62
2022/12/03 04:59:32;;;;;;;19.58;11.10;;;3.50;99.90;;;;;;5071796;28;20048;-62
2022/12/03 05:01:59;;;;;;;20.85;10.98;;;3.50;99.90;;;;;;5072453;28;20499;-62
2022/12/03 05:04:26;;;;;;;20.75;11.40;;;3.50;99.90;;;;;;5071612;28;20048;-63
2022/12/03 05:06:53;;;;;;;19.33;11.05;;;3.50;99.90;;;;;;5072144;28;20435;-64
2022/12/03 05:09:20;;;;;;;17.45;10.68;;;3.40;99.90;;;;;;5071391;28;20484;-64
2022/12/03 05:11:47;;;;;;;19.15;10.75;;;3.40;99.90;;;;;;5070269;28;20048;-65
2022/12/03 05:14:14;;;;;;;17.70;11.45;;;3.50;99.90;;;;;;5071782;28;20438;-65
2022/12/03 05:16:42;;;;;;;18.23;10.68;;;3.50;99.90;;;;;;5071433;28;20060;-65
2022/12/03 05:19:10;;;;;;;18.77;10.60;;;3.40;99.90;;;;;;5070964;28;20059;-64
2022/12/03 05:21:36;;;;;;;18.58;10.68;;;3.40;99.90;;;;;;5070639;28;20497;-65
2022/12/03 05:24:03;;;;;;;19.00;12.07;;;3.40;99.90;;;;;;5072307;28;20055;-64
2022/12/03 05:26:30;;;;;;;19.13;10.52;;;3.40;99.90;;;;;;5071132;28;20044;-65
2022/12/03 05:28:57;;;;;;;19.00;11.38;;;3.40;99.90;;;;;;5068322;28;20105;-64
2022/12/03 05:31:24;;;;;;;19.02;10.68;;;3.40;99.90;;;;;;5071119;28;20044;-63
2022/12/03 05:33:53;;;;;;;19.35;10.50;;;3.40;99.90;;;;;;5071263;28;20056;-63
2022/12/03 05:36:20;;;;;;;23.80;10.70;;;3.40;99.90;;;;;;5071650;28;20051;-62
2022/12/03 05:38:47;;;;;;;18.10;10.80;;;3.40;99.90;;;;;;5071790;28;20048;-63
2022/12/03 05:43:58;;;;;;;19.23;10.90;;;3.40;99.90;;;;;;5071857;28;20067;-64
2022/12/03 05:46:25;;;;;;;22.15;11.43;;;3.40;99.90;;;;;;5072054;28;20434;-63
2022/12/03 05:48:53;;;;;;;18.38;11.20;;;3.40;99.90;;;;;;5071223;28;20045;-63
2022/12/03 05:51:20;;;;;;;18.02;10.48;;;3.30;99.90;;;;;;5072051;28;20048;-62
2022/12/03 05:53:47;;;;;;;21.85;11.82;;;3.30;99.90;;;;;;5070759;28;20049;-62
2022/12/03 05:56:14;;;;;;;16.65;10.07;;;3.40;99.90;;;;;;5071142;28;20048;-63
2022/12/03 05:58:41;;;;;;;18.50;11.02;;;3.40;99.90;;;;;;5070626;28;20044;-62
2022/12/03 06:01:07;;;;;;;17.67;10.50;;;3.40;99.90;;;;;;5071123;28;20051;-62
2022/12/03 06:03:34;;;;;;;18.50;9.98;;;3.50;99.90;;;;;;5070555;28;20041;-62
2022/12/03 06:06:02;;;;;;;19.38;11.45;;;3.30;99.90;;;;;;5071801;28;20048;-63
2022/12/03 06:08:29;;;;;;;19.02;10.70;;;3.50;99.90;;;;;;5066645;28;20155;-62
2022/12/03 06:10:56;;;;;;;18.25;10.80;;;3.30;99.90;;;;;;5056747;28;20542;-62
2022/12/03 06:13:23;;;;;;;19.23;11.32;;;3.40;99.90;;;;;;5064548;28;20520;-62
2022/12/03 06:15:50;;;;;;;18.98;10.80;;;3.40;99.90;;;;;;5064645;28;20056;-63
2022/12/03 06:18:17;;;;;;;20.83;11.38;;;3.40;99.90;;;;;;5063859;28;20056;-63
2022/12/03 06:20:44;;;;;;;22.13;12.15;;;3.50;99.90;;;;;;5063269;28;20056;-62
2022/12/03 06:23:12;;;;;;;17.58;9.95;;;3.40;99.90;;;;;;5094751;28;20128;-63
2022/12/03 06:25:39;;;;;;;18.52;10.57;;;3.40;99.90;;;;;;5063130;28;20377;-63
2022/12/03 06:28:06;;;;;;;18.67;10.65;;;3.40;99.90;;;;;;5064599;28;20040;-63
2022/12/03 06:30:34;;;;;;;17.92;10.93;;;3.40;99.90;;;;;;5064863;28;20049;-63
2022/12/03 06:33:01;;;;;;;22.98;11.82;;;3.40;99.90;;;;;;5062262;28;20102;-63
2022/12/03 06:35:28;;;;;;;18.95;10.93;;;3.40;99.90;;;;;;5095265;28;20077;-63
2022/12/03 06:37:55;;;;;;;19.20;10.48;;;3.40;99.90;;;;;;5063639;28;20382;-63
2022/12/03 06:40:24;;;;;;;17.15;10.63;;;3.40;99.90;;;;;;5066470;28;20052;-63
2022/12/03 06:42:51;;;;;;;20.10;10.80;;;3.30;99.90;;;;;;5064539;28;20080;-62
2022/12/03 06:45:18;;;;;;;22.38;11.15;;;3.30;99.90;;;;;;5062397;28;20045;-63
2022/12/03 06:47:45;;;;;;;20.08;11.38;;;3.30;99.90;;;;;;5068539;28;20439;-63
2022/12/03 06:50:13;;;;;;;17.80;10.63;;;3.40;99.90;;;;;;5067046;28;20503;-63
2022/12/03 06:52:39;;;;;;;19.65;10.75;;;3.30;99.90;;;;;;5062113;28;20454;-63
2022/12/03 06:55:07;;;;;;;19.38;10.50;;;3.20;99.90;;;;;;5067077;28;20174;-63
2022/12/03 06:57:35;;;;;;;18.13;10.25;;;3.20;99.90;;;;;;5064180;28;20059;-62
2022/12/03 07:00:03;;;;;;;17.95;9.52;;;3.20;99.90;;;;;;5068278;28;20099;-64
2022/12/03 07:02:30;;;;;;;18.98;10.70;;;3.20;99.90;;;;;;5064575;28;20040;-63
2022/12/03 07:04:57;;;;;;;19.08;10.35;;;3.20;99.90;;;;;;5065695;28;20127;-62
2022/12/03 07:07:24;;;;;;;18.02;9.98;;;3.20;99.90;;;;;;5067292;28;20102;-62
2022/12/03 07:09:51;;;;;;;20.98;10.18;;;3.20;99.90;;;;;;5065856;28;20062;-61
2022/12/03 07:12:18;;;;;;;18.52;10.85;;;3.10;99.90;;;;;;5064045;28;20443;-62
2022/12/03 07:14:46;;;;;;;18.17;9.93;;;3.20;99.90;;;;;;5067142;28;20459;-63
2022/12/03 07:17:13;;;;;;;18.35;10.65;;;3.10;99.90;;;;;;5064819;28;20067;-62
2022/12/03 07:19:40;;;;;;;19.10;9.45;;;3.10;99.90;;;;;;5065082;28;20067;-62
2022/12/03 07:22:07;;;;;;;19.05;10.68;;;3.10;99.90;;;;;;5064639;28;20071;-62
2022/12/03 07:24:34;;;;;;;17.40;10.05;;;3.10;99.90;;;;;;5068562;28;20044;-63
2022/12/03 07:27:00;;;;;;;19.67;9.98;;;3.10;99.90;;;;;;5070044;28;20045;-63
2022/12/03 07:29:27;;;;;;;17.90;10.77;;;3.10;99.90;;;;;;5066562;28;20057;-63
2022/12/03 07:31:56;;;;;;;19.65;10.32;;;3.10;99.90;;;;;;5068324;28;20040;-63
2022/12/03 07:34:22;;;;;;;16.65;10.18;;;3.10;99.90;;;;;;5066622;28;20110;-63
2022/12/03 07:36:49;;;;;;;19.30;9.85;;;3.10;99.90;;;;;;5066876;28;20056;-63
2022/12/03 07:39:16;;;;;;;18.85;10.40;;;3.10;99.90;;;;;;5069574;28;20056;-62
2022/12/03 07:41:43;;;;;;;18.40;10.07;;;3.10;99.90;;;;;;5065977;28;20052;-63
2022/12/03 07:44:11;;;;;;;19.05;10.25;;;3.10;99.90;;;;;;5067954;28;20061;-63
2022/12/03 07:46:38;;;;;;;16.75;9.95;;;3.10;99.90;;;;;;5068837;28;20057;-63
2022/12/03 07:49:07;;;;;;;16.92;10.57;;;3.10;99.90;;;;;;5069395;28;20159;-62
2022/12/03 07:51:33;;;;;;;14.98;8.77;;;3.10;99.90;;;;;;5068099;28;20096;-62
2022/12/03 07:54:00;;;;;;;22.08;11.23;;;3.10;99.90;;;;;;5064246;28;20535;-62
2022/12/03 07:56:27;;;;;;;16.40;10.10;;;3.10;99.90;;;;;;5065522;28;20526;-62
2022/12/03 07:58:54;;;;;;;24.30;12.00;;;3.20;99.90;;;;;;5065179;28;20048;-63
2022/12/03 08:01:21;;;;;;;19.67;10.20;;;3.10;99.90;;;;;;5064947;28;20442;-63
2022/12/03 08:03:48;;;;;;;20.63;11.13;;;3.10;99.90;;;;;;5067742;28;20083;-63
2022/12/03 08:06:16;;;;;;;19.67;10.27;;;3.00;99.90;;;;;;5098343;28;20465;-62
2022/12/03 08:08:43;;;;;;;19.05;10.15;;;3.00;99.90;;;;;;5067305;28;20060;-62
2022/12/03 08:11:13;;;;;;;19.42;11.15;;;3.00;99.90;;;;;;5069885;28;20482;-62
2022/12/03 08:13:40;;;;;;;21.05;11.60;;;3.00;99.90;;;;;;5068462;28;20186;-62
2022/12/03 08:16:14;;;;;;;20.90;11.20;;;3.00;99.90;;;;;;5064656;28;20052;-63
2022/12/03 08:18:41;;;;;;;26.48;11.52;;;3.00;99.90;;;;;;5069789;28;20102;-63
2022/12/03 08:21:11;;;;;;;21.92;11.82;;;3.00;99.90;;;;;;5065916;28;20601;-63
2022/12/03 08:23:39;;;;;;;20.30;11.25;;;3.00;99.90;;;;;;5063657;28;20488;-63
2022/12/03 08:26:17;;;;;;;18.05;11.27;;;3.00;99.90;;;;;;5065473;28;20071;-62
2022/12/03 08:28:43;;;;;;;22.27;12.18;;;3.00;99.90;;;;;;5062647;28;20061;-63
2022/12/03 08:31:18;;;;;;;19.85;11.10;;;2.90;99.90;;;;;;5070373;28;20053;-63
2022/12/03 08:33:46;;;;;;;19.25;10.63;;;2.90;99.90;;;;;;5064679;28;20484;-63
2022/12/03 08:36:16;;;;;;;21.25;10.48;;;2.90;99.90;;;;;;5065500;28;20153;-64
2022/12/03 08:38:49;;;;;;;22.57;12.57;;;2.90;99.90;;;;;;5066084;28;20400;-63
2022/12/03 08:42:40;;;;;;;21.13;11.35;;;3.00;99.90;;;;;;5067333;28;20056;-63
2022/12/03 08:44:19;;;;;;;20.75;11.57;;;2.90;99.90;;;;;;5065793;28;20084;-63
2022/12/03 08:46:50;;;;;;;18.65;10.82;;;2.90;99.90;;;;;;5067350;28;20052;-64
2022/12/03 08:49:17;;;;;;;19.67;11.70;;;2.90;99.90;;;;;;5067970;28;20493;-64
2022/12/03 08:51:44;;;;;;;19.00;10.43;;;2.90;99.90;;;;;;5094008;28;20045;-64
2022/12/03 08:54:19;;;;;;;23.17;12.30;;;2.90;99.90;;;;;;5065228;28;20075;-64
2022/12/03 08:56:46;;;;;;;20.58;12.38;;;3.10;99.90;;;;;;5065458;28;20059;-64
2022/12/03 08:59:25;;;;;;;22.33;11.15;;;2.90;99.90;;;;;;5064996;28;20431;-64
2022/12/03 09:01:52;;;;;;;21.58;11.13;;;2.90;99.90;;;;;;5065573;28;20527;-64
2022/12/03 09:04:26;;;;;;;22.10;12.25;;;2.90;99.90;;;;;;5064803;28;20052;-64
2022/12/03 09:06:54;;;;;;;20.67;10.98;;;2.90;99.90;;;;;;5066316;28;20045;-64
2022/12/03 09:09:23;;;;;;;21.58;11.57;;;2.90;99.90;;;;;;5069918;28;20048;-64
2022/12/03 09:11:51;;;;;;;21.20;11.65;;;2.90;99.90;;;;;;5064414;28;20052;-64
2022/12/03 09:14:21;;;;;;;24.10;12.65;;;2.90;99.90;;;;;;5063855;28;20484;-64
2022/12/03 09:16:48;;;;;;;22.25;12.82;;;2.90;99.90;;;;;;5096564;28;20383;-64
2022/12/03 09:19:16;;;;;;;22.77;12.90;;;2.90;99.90;;;;;;5071053;28;20048;-64
2022/12/03 09:21:42;;;;;;;21.00;11.57;;;2.90;99.90;;;;;;5070666;28;20492;-64
2022/12/03 09:24:09;;;;;;;23.02;12.73;;;2.90;99.90;;;;;;5069405;28;20418;-64
2022/12/03 09:26:38;;;;;;;23.95;12.77;;;2.80;99.90;;;;;;5067308;28;20059;-64
2022/12/03 09:29:05;;;;;;;21.88;12.55;;;2.80;99.90;;;;;;5069989;28;20411;-64
2022/12/03 09:31:33;;;;;;;25.10;12.65;;;2.80;99.90;;;;;;5071767;28;20458;-64
2022/12/03 09:34:00;;;;;;;23.50;11.68;;;2.80;99.90;;;;;;5071451;28;20040;-64
2022/12/03 09:36:27;;;;;;;24.10;13.57;;;2.80;99.90;;;;;;5071009;28;20048;-64
2022/12/03 09:38:54;;;;;;;26.05;13.02;;;3.40;99.90;;;;;;5070935;28;20041;-63
2022/12/03 09:41:21;;;;;;;25.38;13.70;;;2.70;99.90;;;;;;5070201;28;20094;-63
2022/12/03 09:43:50;;;;;;;21.48;12.45;;;2.80;99.90;;;;;;5071033;28;20464;-63
2022/12/03 09:46:18;;;;;;;23.17;12.63;;;2.80;99.90;;;;;;5068768;28;20044;-64
2022/12/03 09:48:45;;;;;;;21.33;12.95;;;2.90;99.90;;;;;;5071441;28;20412;-63
2022/12/03 09:51:12;;;;;;;24.13;14.20;;;2.90;99.90;;;;;;5071276;28;20048;-64
2022/12/03 09:53:40;;;;;;;21.95;11.60;;;2.90;99.90;;;;;;5071009;28;20527;-64
2022/12/03 09:56:15;;;;;;;23.00;12.60;;;2.90;99.90;;;;;;5070625;28;20131;-63
2022/12/03 09:58:42;;;;;;;25.00;12.73;;;2.90;99.90;;;;;;5070963;28;20102;-64
2022/12/03 10:01:14;;;;;;;24.75;14.02;;;3.10;99.90;;;;;;5069247;28;20393;-64
2022/12/03 10:03:46;;;;;;;23.30;12.13;;;3.00;99.90;;;;;;5071472;28;20052;-63
2022/12/03 10:06:17;;;;;;;25.65;13.32;;;2.90;99.90;;;;;;5071058;28;20083;-64
2022/12/03 10:08:47;;;;;;;22.98;12.68;;;2.90;99.90;;;;;;5071506;28;20993;-64
2022/12/03 10:11:14;;;;;;;23.23;13.07;;;2.90;99.90;;;;;;5071134;28;20054;-63
2022/12/03 10:13:41;;;;;;;24.65;13.20;;;2.90;99.90;;;;;;5072149;28;20565;-63
2022/12/03 10:16:12;;;;;;;21.98;12.75;;;2.90;99.90;;;;;;5071275;28;20562;-64
2022/12/03 10:18:41;;;;;;;24.00;11.88;;;2.90;99.90;;;;;;5070744;28;20091;-63
2022/12/03 10:21:17;;;;;;;24.30;13.45;;;2.90;99.90;;;;;;5069235;28;20106;-64
2022/12/03 10:23:45;;;;;;;21.63;11.77;;;3.10;99.90;;;;;;5070009;28;20127;-64
2022/12/03 10:26:13;;;;;;;23.50;12.18;;;3.00;99.90;;;;;;5070460;28;20496;-64
2022/12/03 10:28:42;;;;;;;24.67;11.88;;;3.00;99.90;;;;;;5070253;28;20094;-63
2022/12/03 10:31:12;;;;;;;21.08;13.27;;;3.00;99.90;;;;;;5069950;28;20135;-63
2022/12/03 10:33:41;;;;;;;21.75;11.43;;;2.90;99.90;;;;;;5071533;28;20059;-63
2022/12/03 10:36:20;;;;;;;21.77;11.13;;;4.10;99.90;;;;;;5071335;28;20048;-63
2022/12/03 10:39:04;;;;;;;22.02;12.55;;;3.60;99.90;;;;;;5054857;28;20037;-64
2022/12/03 10:41:31;;;;;;;24.20;12.68;;;3.40;99.90;;;;;;5061911;28;20404;-64
2022/12/03 10:44:12;;;;;;;20.52;12.65;;;3.20;99.90;;;;;;5061420;28;20052;-64
2022/12/03 10:46:40;;;;;;;23.20;13.10;;;3.10;99.90;;;;;;5069176;28;20508;-64
2022/12/03 10:49:09;;;;;;;21.45;12.27;;;3.10;99.90;;;;;;5061336;28;20058;-64
2022/12/03 10:51:38;;;;;;;25.30;13.23;;;3.10;99.90;;;;;;5063034;28;20051;-64
2022/12/03 10:54:14;;;;;;;22.15;13.23;;;3.00;99.90;;;;;;5065578;28;20041;-64
2022/12/03 10:56:41;;;;;;;25.23;11.95;;;3.10;99.90;;;;;;5071402;28;20052;-64
2022/12/03 10:59:12;;;;;;;20.27;12.13;;;3.00;99.90;;;;;;5067138;28;20075;-64
2022/12/03 11:01:41;;;;;;;22.42;12.85;;;3.00;99.90;;;;;;5071523;28;20060;-64
2022/12/03 11:04:21;;;;;;;20.88;12.27;;;3.00;99.90;;;;;;5069154;28;20056;-64
2022/12/03 11:06:48;;;;;;;22.35;12.32;;;3.00;99.90;;;;;;5072877;28;20053;-64
2022/12/03 11:09:20;;;;;;;26.50;12.93;;;3.10;99.90;;;;;;5066630;28;20048;-64
2022/12/03 11:11:47;;;;;;;22.52;13.00;;;3.10;99.90;;;;;;5069253;28;20067;-64
2022/12/03 11:14:53;;;;;;;20.88;12.20;;;3.10;99.90;;;;;;5067313;28;20078;-64
2022/12/03 11:17:41;;;;;;;23.13;12.95;;;3.10;99.90;;;;;;5068800;28;20455;-63
2022/12/03 11:20:11;;;;;;;22.25;12.98;;;3.10;99.90;;;;;;5066624;28;20045;-63
2022/12/03 11:22:43;;;;;;;24.57;12.70;;;3.30;99.90;;;;;;5071376;28;20098;-63
2022/12/03 11:25:55;;;;;;;25.40;13.02;;;3.00;99.90;;;;;;5068024;28;20048;-64
2022/12/03 11:28:53;;;;;;;22.25;11.82;;;3.00;99.90;;;;;;5066007;28;20048;-64
2022/12/03 11:31:40;;;;;;;23.00;12.40;;;3.00;99.90;;;;;;5066730;28;20091;-64
2022/12/03 11:34:41;;;;;;;23.10;13.23;;;3.00;99.90;;;;;;5064070;28;20049;-65
2022/12/03 11:37:26;;;;;;;24.75;13.35;;;3.00;99.90;;;;;;5069575;28;20131;-64
2022/12/03 11:40:18;;;;;;;20.58;12.85;;;3.00;99.90;;;;;;5066318;28;20098;-64
2022/12/03 11:42:47;;;;;;;20.80;12.10;;;3.00;99.90;;;;;;5056404;28;20067;-64
2022/12/03 11:45:22;;;;;;;21.05;12.60;;;3.00;99.90;;;;;;5067736;28;20522;-64
2022/12/03 11:48:04;;;;;;;22.80;12.23;;;3.00;99.90;;;;;;5067277;28;20057;-64
2022/12/03 11:50:35;;;;;;;27.27;12.68;;;3.10;99.90;;;;;;5068553;28;20405;-64
2022/12/03 11:53:12;;;;;;;22.83;13.82;;;3.10;99.90;;;;;;5069081;28;20043;-64
2022/12/03 11:55:43;;;;;;;21.42;12.93;;;3.10;99.90;;;;;;5066921;28;20482;-64
2022/12/03 11:58:16;;;;;;;25.50;13.82;;;3.10;99.90;;;;;;5066230;28;20080;-64
2022/12/03 12:00:49;;;;;;;25.90;13.27;;;3.10;99.90;;;;;;5064446;28;20473;-63
2022/12/03 12:03:22;;;;;;;25.50;13.10;;;3.00;99.90;;;;;;5098502;28;20063;-64
2022/12/03 12:06:02;;;;;;;27.25;14.25;;;3.10;99.90;;;;;;5067568;28;20530;-63
2022/12/03 12:08:29;;;;;;;27.60;13.68;;;3.10;99.90;;;;;;5065014;28;20051;-63
2022/12/03 12:10:56;;;;;;;22.25;13.00;;;3.00;99.90;;;;;;5064760;28;20090;-64
2022/12/03 12:13:28;;;;;;;26.42;13.73;;;3.00;99.90;;;;;;5069574;28;20049;-65
2022/12/03 12:15:55;;;;;;;23.85;13.90;;;3.00;99.90;;;;;;5063247;28;20087;-63
2022/12/03 12:18:36;;;;;;;24.23;13.05;;;3.10;99.90;;;;;;5070206;28;20496;-62
2022/12/03 12:21:46;;;;;;;23.75;12.40;;;3.00;99.90;;;;;;5066816;28;20048;-63
2022/12/03 12:24:37;;;;;;;22.77;13.43;;;3.00;99.90;;;;;;5066809;28;20425;-63
2022/12/03 12:27:06;;;;;;;26.48;13.68;;;3.00;99.90;;;;;;5065764;28;20053;-63
2022/12/03 12:29:34;;;;;;;28.48;13.95;;;2.90;99.90;;;;;;5070251;28;20124;-63
2022/12/03 12:32:11;;;;;;;25.40;13.52;;;2.90;99.90;;;;;;5065472;28;20045;-63
2022/12/03 12:34:39;;;;;;;25.27;13.55;;;3.00;99.90;;;;;;5066963;28;20052;-64
2022/12/03 12:37:11;;;;;;;25.08;13.90;;;3.00;99.90;;;;;;5069178;28;20408;-63
2022/12/03 12:39:39;;;;;;;27.67;14.65;;;3.00;99.90;;;;;;5068867;28;20051;-63
2022/12/03 12:42:29;;;;;;;28.40;13.63;;;2.90;99.90;;;;;;5066047;28;20056;-63
2022/12/03 12:45:00;;;;;;;29.63;14.68;;;2.90;99.90;;;;;;5066229;28;20076;-63
2022/12/03 12:47:29;;;;;;;25.83;13.75;;;2.90;99.90;;;;;;5067714;28;20084;-63
2022/12/03 12:49:57;;;;;;;29.58;14.30;;;2.90;99.90;;;;;;5069805;28;20408;-63
2022/12/03 12:52:27;;;;;;;24.52;13.65;;;2.90;99.90;;;;;;5065531;28;20048;-63
2022/12/03 12:54:54;;;;;;;26.05;13.10;;;2.80;99.90;;;;;;5067853;28;20485;-63
2022/12/03 12:57:23;;;;;;;26.75;14.30;;;2.90;99.90;;;;;;5070505;28;20056;-63
2022/12/03 12:59:51;;;;;;;24.80;14.13;;;2.80;99.90;;;;;;5069168;28;20052;-63
2022/12/03 13:02:40;;;;;;;25.75;14.20;;;2.80;99.90;;;;;;5070779;28;20044;-63
2022/12/03 13:05:11;;;;;;;25.55;13.80;;;2.80;99.90;;;;;;5069760;28;20044;-63
2022/12/03 13:07:40;;;;;;;;;;;2.80;99.90;;;;;;5071249;28;20080;-63
2022/12/03 13:10:25;;;;;;;24.98;12.68;;;2.80;99.90;;;;;;5070353;28;19920;-63